sensor_id;sensor_type;location;lat;lon;timestamp;P1;durP1;ratioP1;P2;durP2;ratioP2
13797;SDS011;6970;51.340;3.240;2023-09-07T00:01:58;9.67;;;8.83;;
13797;SDS011;6970;51.340;3.240;2023-09-07T00:04:26;9.77;;;8.83;;
13797;SDS011;6970;51.340;3.240;2023-09-07T00:06:58;10.13;;;9.33;;
13797;SDS011;6970;51.340;3.240;2023-09-07T00:09:27;9.87;;;8.97;;
13797;SDS011;6970;51.340;3.240;2023-09-07T00:11:55;10.40;;;9.40;;
13797;SDS011;6970;51.340;3.240;2023-09-07T00:14:22;9.40;;;8.60;;
13797;SDS011;6970;51.340;3.240;2023-09-07T00:16:50;12.47;;;9.27;;
13797;SDS011;6970;51.340;3.240;2023-09-07T00:21:49;10.60;;;9.53;;
13797;SDS011;6970;51.340;3.240;2023-09-07T00:24:18;10.43;;;9.43;;
13797;SDS011;6970;51.340;3.240;2023-09-07T00:26:48;11.17;;;10.07;;
13797;SDS011;6970;51.340;3.240;2023-09-07T00:31:45;11.23;;;10.23;;
13797;SDS011;6970;51.340;3.240;2023-09-07T00:34:13;10.70;;;9.70;;
13797;SDS011;6970;51.340;3.240;2023-09-07T00:36:42;10.97;;;9.97;;
13797;SDS011;6970;51.340;3.240;2023-09-07T00:39:15;12.90;;;10.30;;
13797;SDS011;6970;51.340;3.240;2023-09-07T00:41:44;11.37;;;10.37;;
13797;SDS011;6970;51.340;3.240;2023-09-07T00:44:14;11.97;;;10.80;;
13797;SDS011;6970;51.340;3.240;2023-09-07T00:46:47;10.87;;;9.97;;
13797;SDS011;6970;51.340;3.240;2023-09-07T00:51:48;11.93;;;10.93;;
13797;SDS011;6970;51.340;3.240;2023-09-07T00:54:15;12.23;;;11.10;;
13797;SDS011;6970;51.340;3.240;2023-09-07T00:56:45;11.10;;;10.20;;
13797;SDS011;6970;51.340;3.240;2023-09-07T01:01:46;12.60;;;11.50;;
13797;SDS011;6970;51.340;3.240;2023-09-07T01:04:15;11.80;;;10.60;;
13797;SDS011;6970;51.340;3.240;2023-09-07T01:06:47;11.97;;;11.00;;
13797;SDS011;6970;51.340;3.240;2023-09-07T01:11:51;12.70;;;11.60;;
13797;SDS011;6970;51.340;3.240;2023-09-07T01:19:23;13.40;;;12.03;;
13797;SDS011;6970;51.340;3.240;2023-09-07T01:21:50;13.50;;;12.20;;
13797;SDS011;6970;51.340;3.240;2023-09-07T01:24:19;13.10;;;11.80;;
13797;SDS011;6970;51.340;3.240;2023-09-07T01:26:49;14.40;;;12.93;;
13797;SDS011;6970;51.340;3.240;2023-09-07T01:29:20;14.53;;;12.87;;
13797;SDS011;6970;51.340;3.240;2023-09-07T01:31:49;13.97;;;12.87;;
13797;SDS011;6970;51.340;3.240;2023-09-07T01:34:19;15.33;;;13.77;;
13797;SDS011;6970;51.340;3.240;2023-09-07T01:36:49;14.73;;;13.40;;
13797;SDS011;6970;51.340;3.240;2023-09-07T01:39:17;15.00;;;13.60;;
13797;SDS011;6970;51.340;3.240;2023-09-07T01:41:44;15.03;;;13.43;;
13797;SDS011;6970;51.340;3.240;2023-09-07T01:46:41;15.20;;;13.80;;
13797;SDS011;6970;51.340;3.240;2023-09-07T01:49:10;13.77;;;12.57;;
13797;SDS011;6970;51.340;3.240;2023-09-07T01:51:37;14.57;;;13.00;;
13797;SDS011;6970;51.340;3.240;2023-09-07T01:54:15;15.50;;;13.93;;
13797;SDS011;6970;51.340;3.240;2023-09-07T01:59:15;16.00;;;14.50;;
13797;SDS011;6970;51.340;3.240;2023-09-07T02:01:46;15.70;;;14.20;;
13797;SDS011;6970;51.340;3.240;2023-09-07T02:04:19;16.57;;;15.00;;
13797;SDS011;6970;51.340;3.240;2023-09-07T02:06:46;15.40;;;14.13;;
13797;SDS011;6970;51.340;3.240;2023-09-07T02:09:14;17.00;;;15.53;;
13797;SDS011;6970;51.340;3.240;2023-09-07T02:11:43;17.47;;;15.87;;
13797;SDS011;6970;51.340;3.240;2023-09-07T02:14:12;16.17;;;14.50;;
13797;SDS011;6970;51.340;3.240;2023-09-07T02:16:42;17.30;;;15.50;;
13797;SDS011;6970;51.340;3.240;2023-09-07T02:19:13;17.00;;;15.33;;
13797;SDS011;6970;51.340;3.240;2023-09-07T02:21:46;18.20;;;16.50;;
13797;SDS011;6970;51.340;3.240;2023-09-07T02:24:14;17.10;;;15.23;;
13797;SDS011;6970;51.340;3.240;2023-09-07T02:26:43;21.33;;;16.47;;
13797;SDS011;6970;51.340;3.240;2023-09-07T02:31:42;17.30;;;15.73;;
13797;SDS011;6970;51.340;3.240;2023-09-07T02:34:11;17.67;;;16.00;;
13797;SDS011;6970;51.340;3.240;2023-09-07T02:36:41;18.83;;;16.93;;
13797;SDS011;6970;51.340;3.240;2023-09-07T02:44:15;18.80;;;16.87;;
13797;SDS011;6970;51.340;3.240;2023-09-07T02:46:42;18.73;;;17.03;;
13797;SDS011;6970;51.340;3.240;2023-09-07T02:49:12;17.97;;;16.07;;
13797;SDS011;6970;51.340;3.240;2023-09-07T02:54:13;20.10;;;18.07;;
13797;SDS011;6970;51.340;3.240;2023-09-07T02:56:41;19.37;;;17.27;;
13797;SDS011;6970;51.340;3.240;2023-09-07T02:59:11;19.13;;;17.23;;
13797;SDS011;6970;51.340;3.240;2023-09-07T03:01:39;20.57;;;17.37;;
13797;SDS011;6970;51.340;3.240;2023-09-07T03:04:13;18.77;;;16.87;;
13797;SDS011;6970;51.340;3.240;2023-09-07T03:06:43;17.87;;;16.23;;
13797;SDS011;6970;51.340;3.240;2023-09-07T03:09:12;20.07;;;18.07;;
13797;SDS011;6970;51.340;3.240;2023-09-07T03:11:39;19.23;;;17.40;;
13797;SDS011;6970;51.340;3.240;2023-09-07T03:19:09;19.97;;;18.03;;
13797;SDS011;6970;51.340;3.240;2023-09-07T03:24:06;19.97;;;18.07;;
13797;SDS011;6970;51.340;3.240;2023-09-07T03:29:05;20.33;;;18.40;;
13797;SDS011;6970;51.340;3.240;2023-09-07T03:31:32;20.63;;;18.50;;
13797;SDS011;6970;51.340;3.240;2023-09-07T03:34:00;20.97;;;18.53;;
13797;SDS011;6970;51.340;3.240;2023-09-07T03:36:29;19.63;;;17.63;;
13797;SDS011;6970;51.340;3.240;2023-09-07T03:38:58;21.40;;;18.97;;
13797;SDS011;6970;51.340;3.240;2023-09-07T03:41:25;21.67;;;19.13;;
13797;SDS011;6970;51.340;3.240;2023-09-07T03:46:26;20.70;;;18.77;;
13797;SDS011;6970;51.340;3.240;2023-09-07T03:48:57;20.73;;;18.70;;
13797;SDS011;6970;51.340;3.240;2023-09-07T03:51:31;21.87;;;19.10;;
13797;SDS011;6970;51.340;3.240;2023-09-07T03:53:58;20.40;;;18.00;;
13797;SDS011;6970;51.340;3.240;2023-09-07T03:59:00;22.53;;;19.03;;
13797;SDS011;6970;51.340;3.240;2023-09-07T04:01:28;21.03;;;18.40;;
13797;SDS011;6970;51.340;3.240;2023-09-07T04:03:57;23.03;;;18.77;;
13797;SDS011;6970;51.340;3.240;2023-09-07T04:08:58;21.37;;;19.37;;
13797;SDS011;6970;51.340;3.240;2023-09-07T04:11:27;21.17;;;19.17;;
13797;SDS011;6970;51.340;3.240;2023-09-07T04:13:55;21.10;;;18.90;;
13797;SDS011;6970;51.340;3.240;2023-09-07T04:16:22;21.63;;;18.50;;
13797;SDS011;6970;51.340;3.240;2023-09-07T04:18:53;21.77;;;19.47;;
13797;SDS011;6970;51.340;3.240;2023-09-07T04:21:22;22.80;;;20.43;;
13797;SDS011;6970;51.340;3.240;2023-09-07T04:23:49;22.23;;;19.93;;
13797;SDS011;6970;51.340;3.240;2023-09-07T04:26:16;21.90;;;19.50;;
13797;SDS011;6970;51.340;3.240;2023-09-07T04:28:43;22.07;;;19.63;;
13797;SDS011;6970;51.340;3.240;2023-09-07T04:31:12;23.93;;;20.97;;
13797;SDS011;6970;51.340;3.240;2023-09-07T04:33:39;25.00;;;20.20;;
13797;SDS011;6970;51.340;3.240;2023-09-07T04:36:10;23.03;;;20.40;;
13797;SDS011;6970;51.340;3.240;2023-09-07T04:38:38;25.47;;;21.63;;
13797;SDS011;6970;51.340;3.240;2023-09-07T04:41:12;25.40;;;21.03;;
13797;SDS011;6970;51.340;3.240;2023-09-07T04:43:42;22.67;;;20.60;;
13797;SDS011;6970;51.340;3.240;2023-09-07T04:46:10;22.17;;;19.90;;
13797;SDS011;6970;51.340;3.240;2023-09-07T04:48:43;23.10;;;20.57;;
13797;SDS011;6970;51.340;3.240;2023-09-07T04:51:12;23.80;;;20.07;;
13797;SDS011;6970;51.340;3.240;2023-09-07T04:56:17;22.57;;;20.23;;
13797;SDS011;6970;51.340;3.240;2023-09-07T05:01:14;22.53;;;20.20;;
13797;SDS011;6970;51.340;3.240;2023-09-07T05:06:11;21.77;;;19.47;;
13797;SDS011;6970;51.340;3.240;2023-09-07T05:08:40;21.93;;;19.73;;
13797;SDS011;6970;51.340;3.240;2023-09-07T05:11:07;23.27;;;20.87;;
13797;SDS011;6970;51.340;3.240;2023-09-07T05:13:34;27.93;;;20.40;;
13797;SDS011;6970;51.340;3.240;2023-09-07T05:16:01;23.40;;;20.77;;
13797;SDS011;6970;51.340;3.240;2023-09-07T05:18:31;22.50;;;20.20;;
13797;SDS011;6970;51.340;3.240;2023-09-07T05:21:27;26.23;;;19.73;;
13797;SDS011;6970;51.340;3.240;2023-09-07T05:23:58;22.27;;;19.87;;
13797;SDS011;6970;51.340;3.240;2023-09-07T05:26:28;28.77;;;21.37;;
13797;SDS011;6970;51.340;3.240;2023-09-07T05:31:27;23.13;;;20.83;;
13797;SDS011;6970;51.340;3.240;2023-09-07T05:33:56;21.30;;;19.20;;
13797;SDS011;6970;51.340;3.240;2023-09-07T05:36:27;23.43;;;21.00;;
13797;SDS011;6970;51.340;3.240;2023-09-07T05:48:57;22.67;;;20.27;;
13797;SDS011;6970;51.340;3.240;2023-09-07T05:51:26;22.30;;;19.90;;
13797;SDS011;6970;51.340;3.240;2023-09-07T05:56:27;25.90;;;20.63;;
13797;SDS011;6970;51.340;3.240;2023-09-07T05:59:00;21.63;;;19.33;;
13797;SDS011;6970;51.340;3.240;2023-09-07T06:04:01;21.97;;;19.77;;
13797;SDS011;6970;51.340;3.240;2023-09-07T06:06:30;22.37;;;20.23;;
13797;SDS011;6970;51.340;3.240;2023-09-07T06:09:00;22.00;;;19.63;;
13797;SDS011;6970;51.340;3.240;2023-09-07T06:11:30;23.53;;;21.13;;
13797;SDS011;6970;51.340;3.240;2023-09-07T06:16:31;22.50;;;20.10;;
13797;SDS011;6970;51.340;3.240;2023-09-07T06:21:28;22.60;;;20.17;;
13797;SDS011;6970;51.340;3.240;2023-09-07T06:24:01;21.50;;;19.37;;
13797;SDS011;6970;51.340;3.240;2023-09-07T06:26:30;22.03;;;19.73;;
13797;SDS011;6970;51.340;3.240;2023-09-07T06:28:57;22.53;;;20.07;;
13797;SDS011;6970;51.340;3.240;2023-09-07T06:31:25;22.07;;;18.87;;
13797;SDS011;6970;51.340;3.240;2023-09-07T06:33:53;20.90;;;18.53;;
13797;SDS011;6970;51.340;3.240;2023-09-07T06:36:21;21.00;;;17.63;;
13797;SDS011;6970;51.340;3.240;2023-09-07T06:39:10;19.23;;;17.07;;
13797;SDS011;6970;51.340;3.240;2023-09-07T06:41:45;20.20;;;18.20;;
13797;SDS011;6970;51.340;3.240;2023-09-07T06:44:13;20.37;;;16.23;;
13797;SDS011;6970;51.340;3.240;2023-09-07T06:46:42;20.33;;;16.50;;
13797;SDS011;6970;51.340;3.240;2023-09-07T06:49:15;20.30;;;16.83;;
13797;SDS011;6970;51.340;3.240;2023-09-07T06:54:14;17.17;;;15.50;;
13797;SDS011;6970;51.340;3.240;2023-09-07T06:56:42;16.77;;;15.00;;
13797;SDS011;6970;51.340;3.240;2023-09-07T06:59:09;19.70;;;15.67;;
13797;SDS011;6970;51.340;3.240;2023-09-07T07:01:36;17.43;;;15.83;;
13797;SDS011;6970;51.340;3.240;2023-09-07T07:04:10;18.73;;;15.00;;
13797;SDS011;6970;51.340;3.240;2023-09-07T07:11:40;16.60;;;14.83;;
13797;SDS011;6970;51.340;3.240;2023-09-07T07:14:11;15.60;;;14.17;;
13797;SDS011;6970;51.340;3.240;2023-09-07T07:16:40;15.27;;;13.83;;
13797;SDS011;6970;51.340;3.240;2023-09-07T07:19:14;15.70;;;14.23;;
13797;SDS011;6970;51.340;3.240;2023-09-07T07:24:11;15.33;;;13.93;;
13797;SDS011;6970;51.340;3.240;2023-09-07T07:26:38;15.57;;;13.53;;
13797;SDS011;6970;51.340;3.240;2023-09-07T07:29:07;16.20;;;14.50;;
13797;SDS011;6970;51.340;3.240;2023-09-07T07:34:05;17.50;;;12.97;;
13797;SDS011;6970;51.340;3.240;2023-09-07T07:36:38;14.83;;;12.10;;
13797;SDS011;6970;51.340;3.240;2023-09-07T07:39:08;18.33;;;12.40;;
13797;SDS011;6970;51.340;3.240;2023-09-07T07:41:38;12.83;;;11.63;;
13797;SDS011;6970;51.340;3.240;2023-09-07T07:44:09;12.30;;;11.27;;
13797;SDS011;6970;51.340;3.240;2023-09-07T07:46:37;11.53;;;10.43;;
13797;SDS011;6970;51.340;3.240;2023-09-07T07:49:05;13.13;;;11.70;;
13797;SDS011;6970;51.340;3.240;2023-09-07T07:51:32;12.80;;;11.60;;
13797;SDS011;6970;51.340;3.240;2023-09-07T07:56:39;12.43;;;11.23;;
13797;SDS011;6970;51.340;3.240;2023-09-07T07:59:09;13.00;;;11.73;;
13797;SDS011;6970;51.340;3.240;2023-09-07T08:01:37;13.77;;;12.47;;
13797;SDS011;6970;51.340;3.240;2023-09-07T08:06:35;15.17;;;12.37;;
13797;SDS011;6970;51.340;3.240;2023-09-07T08:11:33;16.17;;;12.68;;
13797;SDS011;6970;51.340;3.240;2023-09-07T08:16:33;14.13;;;12.38;;
13797;SDS011;6970;51.340;3.240;2023-09-07T08:19:02;14.88;;;11.65;;
13797;SDS011;6970;51.340;3.240;2023-09-07T08:21:33;12.02;;;10.90;;
13797;SDS011;6970;51.340;3.240;2023-09-07T08:24:02;13.73;;;12.30;;
13797;SDS011;6970;51.340;3.240;2023-09-07T08:26:30;14.40;;;12.05;;
13797;SDS011;6970;51.340;3.240;2023-09-07T08:31:32;13.35;;;11.57;;
13797;SDS011;6970;51.340;3.240;2023-09-07T08:34:03;12.43;;;11.02;;
13797;SDS011;6970;51.340;3.240;2023-09-07T08:36:35;12.50;;;11.20;;
13797;SDS011;6970;51.340;3.240;2023-09-07T08:39:03;15.15;;;11.57;;
13797;SDS011;6970;51.340;3.240;2023-09-07T08:44:28;12.00;;;10.68;;
13797;SDS011;6970;51.340;3.240;2023-09-07T08:46:59;13.88;;;10.32;;
13797;SDS011;6970;51.340;3.240;2023-09-07T08:49:30;12.48;;;11.25;;
13797;SDS011;6970;51.340;3.240;2023-09-07T08:52:03;11.27;;;10.13;;
13797;SDS011;6970;51.340;3.240;2023-09-07T08:54:34;12.05;;;10.23;;
13797;SDS011;6970;51.340;3.240;2023-09-07T08:57:09;10.60;;;9.68;;
13797;SDS011;6970;51.340;3.240;2023-09-07T08:59:38;11.85;;;10.15;;
13797;SDS011;6970;51.340;3.240;2023-09-07T09:02:12;12.25;;;10.60;;
13797;SDS011;6970;51.340;3.240;2023-09-07T09:04:41;10.52;;;9.52;;
13797;SDS011;6970;51.340;3.240;2023-09-07T09:07:08;10.77;;;9.77;;
13797;SDS011;6970;51.340;3.240;2023-09-07T09:09:38;11.00;;;10.10;;
13797;SDS011;6970;51.340;3.240;2023-09-07T09:12:09;12.00;;;10.90;;
13797;SDS011;6970;51.340;3.240;2023-09-07T09:14:42;10.30;;;9.40;;
13797;SDS011;6970;51.340;3.240;2023-09-07T09:17:12;11.25;;;10.25;;
13797;SDS011;6970;51.340;3.240;2023-09-07T09:19:40;10.38;;;9.57;;
13797;SDS011;6970;51.340;3.240;2023-09-07T09:22:11;10.80;;;9.77;;
13797;SDS011;6970;51.340;3.240;2023-09-07T09:24:38;11.27;;;8.95;;
13797;SDS011;6970;51.340;3.240;2023-09-07T09:27:08;10.65;;;9.43;;
13797;SDS011;6970;51.340;3.240;2023-09-07T09:29:35;11.98;;;10.70;;
13797;SDS011;6970;51.340;3.240;2023-09-07T09:32:05;9.82;;;8.93;;
13797;SDS011;6970;51.340;3.240;2023-09-07T09:34:33;12.15;;;9.68;;
13797;SDS011;6970;51.340;3.240;2023-09-07T09:37:02;11.35;;;10.40;;
13797;SDS011;6970;51.340;3.240;2023-09-07T09:39:32;9.38;;;8.48;;
13797;SDS011;6970;51.340;3.240;2023-09-07T09:42:00;11.75;;;9.55;;
13797;SDS011;6970;51.340;3.240;2023-09-07T09:44:28;11.45;;;9.60;;
13797;SDS011;6970;51.340;3.240;2023-09-07T09:46:55;11.35;;;10.52;;
13797;SDS011;6970;51.340;3.240;2023-09-07T09:49:29;10.45;;;9.55;;
13797;SDS011;6970;51.340;3.240;2023-09-07T09:51:59;8.45;;;7.63;;
13797;SDS011;6970;51.340;3.240;2023-09-07T09:54:30;8.70;;;7.97;;
13797;SDS011;6970;51.340;3.240;2023-09-07T09:57:01;10.18;;;9.02;;
13797;SDS011;6970;51.340;3.240;2023-09-07T09:59:29;9.85;;;8.35;;
13797;SDS011;6970;51.340;3.240;2023-09-07T10:01:57;8.80;;;8.00;;
13797;SDS011;6970;51.340;3.240;2023-09-07T10:04:27;11.13;;;9.65;;
13797;SDS011;6970;51.340;3.240;2023-09-07T10:06:56;10.35;;;9.13;;
13797;SDS011;6970;51.340;3.240;2023-09-07T10:09:32;11.10;;;10.00;;
13797;SDS011;6970;51.340;3.240;2023-09-07T10:12:01;9.52;;;7.65;;
13797;SDS011;6970;51.340;3.240;2023-09-07T10:14:38;9.70;;;8.70;;
13797;SDS011;6970;51.340;3.240;2023-09-07T10:17:08;9.70;;;8.80;;
13797;SDS011;6970;51.340;3.240;2023-09-07T10:19:38;11.52;;;8.23;;
13797;SDS011;6970;51.340;3.240;2023-09-07T10:22:20;9.30;;;8.43;;
13797;SDS011;6970;51.340;3.240;2023-09-07T10:24:56;8.75;;;7.85;;
13797;SDS011;6970;51.340;3.240;2023-09-07T10:27:25;9.93;;;7.10;;
13797;SDS011;6970;51.340;3.240;2023-09-07T10:30:09;8.65;;;7.70;;
13797;SDS011;6970;51.340;3.240;2023-09-07T10:32:41;8.02;;;7.25;;
13797;SDS011;6970;51.340;3.240;2023-09-07T10:35:15;8.02;;;6.68;;
13797;SDS011;6970;51.340;3.240;2023-09-07T10:37:50;7.35;;;6.65;;
13797;SDS011;6970;51.340;3.240;2023-09-07T10:40:24;7.07;;;6.38;;
13797;SDS011;6970;51.340;3.240;2023-09-07T10:43:01;7.40;;;6.70;;
13797;SDS011;6970;51.340;3.240;2023-09-07T10:45:30;8.27;;;7.57;;
13797;SDS011;6970;51.340;3.240;2023-09-07T10:47:58;10.13;;;6.30;;
13797;SDS011;6970;51.340;3.240;2023-09-07T10:50:27;10.52;;;8.13;;
13797;SDS011;6970;51.340;3.240;2023-09-07T10:52:55;9.52;;;7.43;;
13797;SDS011;6970;51.340;3.240;2023-09-07T10:55:25;7.85;;;7.05;;
13797;SDS011;6970;51.340;3.240;2023-09-07T10:57:54;7.38;;;6.40;;
13797;SDS011;6970;51.340;3.240;2023-09-07T11:02:51;9.48;;;7.03;;
13797;SDS011;6970;51.340;3.240;2023-09-07T11:05:19;8.90;;;7.95;;
13797;SDS011;6970;51.340;3.240;2023-09-07T11:07:52;11.52;;;8.30;;
13797;SDS011;6970;51.340;3.240;2023-09-07T11:12:52;5.95;;;5.45;;
13797;SDS011;6970;51.340;3.240;2023-09-07T11:17:51;5.28;;;4.85;;
13797;SDS011;6970;51.340;3.240;2023-09-07T11:20:21;5.47;;;4.97;;
13797;SDS011;6970;51.340;3.240;2023-09-07T11:22:49;5.55;;;5.07;;
13797;SDS011;6970;51.340;3.240;2023-09-07T11:25:38;5.82;;;5.32;;
13797;SDS011;6970;51.340;3.240;2023-09-07T11:28:11;7.32;;;5.82;;
13797;SDS011;6970;51.340;3.240;2023-09-07T11:33:26;9.60;;;6.47;;
13797;SDS011;6970;51.340;3.240;2023-09-07T11:35:59;11.13;;;10.13;;
13797;SDS011;6970;51.340;3.240;2023-09-07T11:38:30;12.00;;;10.90;;
13797;SDS011;6970;51.340;3.240;2023-09-07T11:41:04;11.13;;;10.02;;
13797;SDS011;6970;51.340;3.240;2023-09-07T11:43:31;7.97;;;7.28;;
13797;SDS011;6970;51.340;3.240;2023-09-07T11:48:32;8.30;;;7.60;;
13797;SDS011;6970;51.340;3.240;2023-09-07T11:51:01;6.15;;;5.60;;
13797;SDS011;6970;51.340;3.240;2023-09-07T11:53:31;6.47;;;5.88;;
13797;SDS011;6970;51.340;3.240;2023-09-07T11:56:00;7.00;;;5.15;;
13797;SDS011;6970;51.340;3.240;2023-09-07T11:58:27;6.40;;;4.55;;
13797;SDS011;6970;51.340;3.240;2023-09-07T12:00:59;4.78;;;4.38;;
13797;SDS011;6970;51.340;3.240;2023-09-07T12:03:27;7.70;;;5.57;;
13797;SDS011;6970;51.340;3.240;2023-09-07T12:05:57;4.80;;;4.40;;
13797;SDS011;6970;51.340;3.240;2023-09-07T12:10:57;5.40;;;4.90;;
13797;SDS011;6970;51.340;3.240;2023-09-07T12:15:56;4.97;;;4.45;;
13797;SDS011;6970;51.340;3.240;2023-09-07T12:18:25;5.20;;;4.70;;
13797;SDS011;6970;51.340;3.240;2023-09-07T12:20:55;9.10;;;5.07;;
13797;SDS011;6970;51.340;3.240;2023-09-07T12:30:53;4.63;;;4.22;;
13797;SDS011;6970;51.340;3.240;2023-09-07T12:33:22;5.60;;;4.03;;
13797;SDS011;6970;51.340;3.240;2023-09-07T12:35:52;4.40;;;4.00;;
13797;SDS011;6970;51.340;3.240;2023-09-07T12:38:20;4.30;;;3.90;;
13797;SDS011;6970;51.340;3.240;2023-09-07T12:40:48;4.00;;;3.70;;
13797;SDS011;6970;51.340;3.240;2023-09-07T12:43:17;4.13;;;3.83;;
13797;SDS011;6970;51.340;3.240;2023-09-07T12:45:49;4.40;;;3.80;;
13797;SDS011;6970;51.340;3.240;2023-09-07T12:48:17;5.95;;;3.90;;
13797;SDS011;6970;51.340;3.240;2023-09-07T12:50:47;4.30;;;3.90;;
13797;SDS011;6970;51.340;3.240;2023-09-07T12:53:16;3.67;;;3.38;;
13797;SDS011;6970;51.340;3.240;2023-09-07T12:55:45;5.53;;;4.03;;
13797;SDS011;6970;51.340;3.240;2023-09-07T13:00:45;3.72;;;3.42;;
13797;SDS011;6970;51.340;3.240;2023-09-07T13:03:14;4.00;;;3.58;;
13797;SDS011;6970;51.340;3.240;2023-09-07T13:05:42;5.25;;;4.68;;
13797;SDS011;6970;51.340;3.240;2023-09-07T13:08:11;6.43;;;4.00;;
13797;SDS011;6970;51.340;3.240;2023-09-07T13:10:39;4.18;;;3.83;;
13797;SDS011;6970;51.340;3.240;2023-09-07T13:13:08;5.65;;;3.90;;
13797;SDS011;6970;51.340;3.240;2023-09-07T13:18:06;4.82;;;4.43;;
13797;SDS011;6970;51.340;3.240;2023-09-07T13:20:35;7.88;;;6.22;;
13797;SDS011;6970;51.340;3.240;2023-09-07T13:25:34;6.43;;;5.80;;
13797;SDS011;6970;51.340;3.240;2023-09-07T13:28:02;6.47;;;5.20;;
13797;SDS011;6970;51.340;3.240;2023-09-07T13:33:01;9.07;;;5.78;;
13797;SDS011;6970;51.340;3.240;2023-09-07T13:35:30;9.30;;;6.30;;
13797;SDS011;6970;51.340;3.240;2023-09-07T13:37:57;9.30;;;6.22;;
13797;SDS011;6970;51.340;3.240;2023-09-07T13:40:24;5.35;;;4.95;;
13797;SDS011;6970;51.340;3.240;2023-09-07T13:42:55;5.95;;;5.45;;
13797;SDS011;6970;51.340;3.240;2023-09-07T13:45:27;5.95;;;4.70;;
13797;SDS011;6970;51.340;3.240;2023-09-07T13:47:56;5.95;;;4.45;;
13797;SDS011;6970;51.340;3.240;2023-09-07T13:50:24;4.57;;;3.92;;
13797;SDS011;6970;51.340;3.240;2023-09-07T13:55:22;5.65;;;4.63;;
13797;SDS011;6970;51.340;3.240;2023-09-07T13:57:51;4.30;;;4.00;;
13797;SDS011;6970;51.340;3.240;2023-09-07T14:00:20;5.90;;;4.18;;
13797;SDS011;6970;51.340;3.240;2023-09-07T14:02:49;6.70;;;4.30;;
13797;SDS011;6970;51.340;3.240;2023-09-07T14:05:19;5.22;;;4.18;;
13797;SDS011;6970;51.340;3.240;2023-09-07T14:07:46;7.28;;;4.65;;
13797;SDS011;6970;51.340;3.240;2023-09-07T14:10:13;4.43;;;4.03;;
13797;SDS011;6970;51.340;3.240;2023-09-07T14:12:41;5.47;;;4.35;;
13797;SDS011;6970;51.340;3.240;2023-09-07T14:15:10;5.88;;;4.30;;
13797;SDS011;6970;51.340;3.240;2023-09-07T14:17:39;4.72;;;4.18;;
13797;SDS011;6970;51.340;3.240;2023-09-07T14:20:08;5.10;;;3.92;;
13797;SDS011;6970;51.340;3.240;2023-09-07T14:22:39;4.85;;;4.32;;
13797;SDS011;6970;51.340;3.240;2023-09-07T14:25:06;8.35;;;4.07;;
13797;SDS011;6970;51.340;3.240;2023-09-07T14:27:37;6.78;;;4.10;;
13797;SDS011;6970;51.340;3.240;2023-09-07T14:30:04;8.07;;;4.20;;
13797;SDS011;6970;51.340;3.240;2023-09-07T14:32:34;8.02;;;4.03;;
13797;SDS011;6970;51.340;3.240;2023-09-07T14:37:33;4.15;;;3.83;;
13797;SDS011;6970;51.340;3.240;2023-09-07T14:42:34;5.90;;;4.15;;
13797;SDS011;6970;51.340;3.240;2023-09-07T14:47:39;4.22;;;3.83;;
13797;SDS011;6970;51.340;3.240;2023-09-07T14:50:07;4.15;;;3.72;;
13797;SDS011;6970;51.340;3.240;2023-09-07T14:52:37;4.22;;;3.80;;
13797;SDS011;6970;51.340;3.240;2023-09-07T14:55:10;3.53;;;3.22;;
13797;SDS011;6970;51.340;3.240;2023-09-07T14:57:37;5.50;;;3.45;;
13797;SDS011;6970;51.340;3.240;2023-09-07T15:00:05;4.15;;;3.75;;
13797;SDS011;6970;51.340;3.240;2023-09-07T15:02:35;4.95;;;3.90;;
13797;SDS011;6970;51.340;3.240;2023-09-07T15:05:04;5.40;;;3.78;;
13797;SDS011;6970;51.340;3.240;2023-09-07T15:07:33;4.10;;;3.40;;
13797;SDS011;6970;51.340;3.240;2023-09-07T15:10:01;4.70;;;4.15;;
13797;SDS011;6970;51.340;3.240;2023-09-07T15:12:32;4.93;;;3.85;;
13797;SDS011;6970;51.340;3.240;2023-09-07T15:15:02;4.40;;;3.78;;
13797;SDS011;6970;51.340;3.240;2023-09-07T15:17:29;4.13;;;3.83;;
13797;SDS011;6970;51.340;3.240;2023-09-07T15:19:56;3.85;;;3.55;;
13797;SDS011;6970;51.340;3.240;2023-09-07T15:22:23;4.32;;;3.92;;
13797;SDS011;6970;51.340;3.240;2023-09-07T15:24:50;4.05;;;3.58;;
13797;SDS011;6970;51.340;3.240;2023-09-07T15:27:17;3.72;;;3.42;;
13797;SDS011;6970;51.340;3.240;2023-09-07T15:29:45;4.93;;;3.70;;
13797;SDS011;6970;51.340;3.240;2023-09-07T15:32:14;5.47;;;4.35;;
13797;SDS011;6970;51.340;3.240;2023-09-07T15:34:42;3.63;;;3.42;;
13797;SDS011;6970;51.340;3.240;2023-09-07T15:37:10;4.22;;;3.85;;
13797;SDS011;6970;51.340;3.240;2023-09-07T15:39:40;6.30;;;3.50;;
13797;SDS011;6970;51.340;3.240;2023-09-07T15:42:11;4.18;;;3.80;;
13797;SDS011;6970;51.340;3.240;2023-09-07T15:49:44;4.97;;;3.45;;
13797;SDS011;6970;51.340;3.240;2023-09-07T15:52:12;3.40;;;3.13;;
13797;SDS011;6970;51.340;3.240;2023-09-07T15:54:42;3.97;;;3.67;;
13797;SDS011;6970;51.340;3.240;2023-09-07T15:57:11;4.20;;;3.80;;
13797;SDS011;6970;51.340;3.240;2023-09-07T15:59:41;4.00;;;3.60;;
13797;SDS011;6970;51.340;3.240;2023-09-07T16:02:11;3.65;;;3.35;;
13797;SDS011;6970;51.340;3.240;2023-09-07T16:04:39;4.30;;;4.00;;
13797;SDS011;6970;51.340;3.240;2023-09-07T16:07:08;4.05;;;3.75;;
13797;SDS011;6970;51.340;3.240;2023-09-07T16:09:37;6.28;;;4.65;;
13797;SDS011;6970;51.340;3.240;2023-09-07T16:12:05;4.10;;;3.80;;
13797;SDS011;6970;51.340;3.240;2023-09-07T16:17:05;5.28;;;4.88;;
13797;SDS011;6970;51.340;3.240;2023-09-07T16:19:35;4.82;;;4.43;;
13797;SDS011;6970;51.340;3.240;2023-09-07T16:22:04;6.22;;;5.72;;
13797;SDS011;6970;51.340;3.240;2023-09-07T16:27:08;5.07;;;4.72;;
13797;SDS011;6970;51.340;3.240;2023-09-07T16:29:35;4.60;;;4.30;;
13797;SDS011;6970;51.340;3.240;2023-09-07T16:32:05;4.63;;;4.30;;
13797;SDS011;6970;51.340;3.240;2023-09-07T16:34:32;4.35;;;4.05;;
13797;SDS011;6970;51.340;3.240;2023-09-07T16:36:59;6.10;;;5.60;;
13797;SDS011;6970;51.340;3.240;2023-09-07T16:39:27;4.22;;;3.83;;
13797;SDS011;6970;51.340;3.240;2023-09-07T16:41:55;5.07;;;4.78;;
13797;SDS011;6970;51.340;3.240;2023-09-07T16:44:23;4.78;;;4.30;;
13797;SDS011;6970;51.340;3.240;2023-09-07T16:46:51;4.25;;;3.85;;
13797;SDS011;6970;51.340;3.240;2023-09-07T16:49:18;4.68;;;4.15;;
13797;SDS011;6970;51.340;3.240;2023-09-07T16:51:45;6.28;;;4.55;;
13797;SDS011;6970;51.340;3.240;2023-09-07T16:54:12;8.25;;;7.38;;
13797;SDS011;6970;51.340;3.240;2023-09-07T16:59:09;4.82;;;4.40;;
13797;SDS011;6970;51.340;3.240;2023-09-07T17:01:40;5.07;;;4.32;;
13797;SDS011;6970;51.340;3.240;2023-09-07T17:04:08;7.93;;;5.00;;
13797;SDS011;6970;51.340;3.240;2023-09-07T17:06:36;4.78;;;4.38;;
13797;SDS011;6970;51.340;3.240;2023-09-07T17:09:05;4.57;;;4.10;;
13797;SDS011;6970;51.340;3.240;2023-09-07T17:11:38;7.07;;;4.50;;
13797;SDS011;6970;51.340;3.240;2023-09-07T17:14:05;6.05;;;4.10;;
13797;SDS011;6970;51.340;3.240;2023-09-07T17:16:33;5.00;;;4.50;;
13797;SDS011;6970;51.340;3.240;2023-09-07T17:19:01;9.02;;;4.18;;
13797;SDS011;6970;51.340;3.240;2023-09-07T17:24:02;4.53;;;3.92;;
13797;SDS011;6970;51.340;3.240;2023-09-07T17:26:32;5.07;;;4.20;;
13797;SDS011;6970;51.340;3.240;2023-09-07T17:31:30;4.28;;;3.88;;
13797;SDS011;6970;51.340;3.240;2023-09-07T17:33:58;4.93;;;4.07;;
13797;SDS011;6970;51.340;3.240;2023-09-07T17:36:27;5.43;;;4.60;;
13797;SDS011;6970;51.340;3.240;2023-09-07T17:39:00;7.22;;;4.97;;
13797;SDS011;6970;51.340;3.240;2023-09-07T17:41:31;6.32;;;4.60;;
13797;SDS011;6970;51.340;3.240;2023-09-07T17:44:03;5.40;;;4.40;;
13797;SDS011;6970;51.340;3.240;2023-09-07T17:46:30;5.53;;;4.88;;
13797;SDS011;6970;51.340;3.240;2023-09-07T17:48:58;5.25;;;4.63;;
13797;SDS011;6970;51.340;3.240;2023-09-07T17:51:25;4.63;;;4.30;;
13797;SDS011;6970;51.340;3.240;2023-09-07T17:53:52;5.22;;;4.60;;